Time;durP1;ratioP1;P1;durP2;ratioP2;P2;SDS_P1;SDS_P2;PMS_P1;PMS_P2;Temp;Humidity;BMP_temperature;BMP_pressure;BME280_temperature;BME280_humidity;BME280_pressure;Samples;Min_cycle;Max_cycle;Signal;HPM_P1;HPM_P2
2023/03/28 00:02:14;;;;;;;53.83;20.90;;;;;;;;;;6288332;28;20469;-80
2023/03/28 00:05:16;;;;;;;56.93;18.43;;;;;;;;;;6290681;28;20035;-80
2023/03/28 00:08:16;;;;;;;44.97;17.55;;;;;;;;;;6292441;28;20063;-80
2023/03/28 00:11:18;;;;;;;36.30;13.10;;;;;;;;;;6294185;28;20055;-80
2023/03/28 00:14:18;;;;;;;29.63;14.23;;;;;;;;;;6292782;28;20463;-80
2023/03/28 00:17:18;;;;;;;28.00;12.57;;;;;;;;;;6294252;28;20020;-79
2023/03/28 00:20:20;;;;;;;30.03;11.77;;;;;;;;;;6293659;28;20028;-79
2023/03/28 00:23:20;;;;;;;31.13;11.70;;;;;;;;;;6293700;28;20612;-79
2023/03/28 00:26:23;;;;;;;31.10;13.17;;;;;;;;;;6293195;28;20055;-79
2023/03/28 00:29:24;;;;;;;32.50;13.15;;;;;;;;;;6294030;28;20012;-79
2023/03/28 00:32:25;;;;;;;36.75;15.50;;;;;;;;;;6293718;28;20066;-79
2023/03/28 00:35:25;;;;;;;38.13;16.33;;;;;;;;;;6293802;28;20017;-81
2023/03/28 00:38:26;;;;;;;32.97;13.30;;;;;;;;;;6289190;28;20067;-79
2023/03/28 00:41:30;;;;;;;25.63;10.82;;;;;;;;;;6290855;28;20115;-78
2023/03/28 00:44:44;;;;;;;29.42;12.68;;;;;;;;;;6272696;28;20115;-79
2023/03/28 00:47:50;;;;;;;31.27;11.75;;;;;;;;;;6271206;28;20021;-78
2023/03/28 00:50:51;;;;;;;24.77;10.63;;;;;;;;;;6285578;28;20036;-78
2023/03/28 00:53:52;;;;;;;26.10;11.57;;;;;;;;;;6274930;28;20036;-78
2023/03/28 00:56:55;;;;;;;28.95;11.95;;;;;;;;;;6293876;28;20116;-78
2023/03/28 00:59:55;;;;;;;31.00;12.52;;;;;;;;;;6287991;28;20025;-78
2023/03/28 01:02:57;;;;;;;30.60;13.83;;;;;;;;;;6289014;28;20550;-78
2023/03/28 01:05:57;;;;;;;30.65;12.05;;;;;;;;;;6286164;28;20478;-78
2023/03/28 01:08:58;;;;;;;31.20;12.47;;;;;;;;;;6295320;28;20038;-78
2023/03/28 01:11:59;;;;;;;25.63;12.18;;;;;;;;;;6296042;28;20024;-78
2023/03/28 01:15:00;;;;;;;29.40;14.10;;;;;;;;;;6293351;28;20067;-78
2023/03/28 01:18:01;;;;;;;36.38;14.43;;;;;;;;;;6291539;28;20090;-78
2023/03/28 01:21:05;;;;;;;39.35;14.05;;;;;;;;;;6295164;28;20025;-79
2023/03/28 01:24:24;;;;;;;35.80;14.95;;;;;;;;;;6281553;28;20068;-78
2023/03/28 01:27:24;;;;;;;31.33;14.10;;;;;;;;;;6297211;28;20022;-79
2023/03/28 01:30:43;;;;;;;27.85;14.43;;;;;;;;;;6292179;28;20036;-79
2023/03/28 01:33:52;;;;;;;28.50;12.60;;;;;;;;;;6291223;28;20074;-79
2023/03/28 01:37:02;;;;;;;28.70;14.30;;;;;;;;;;6286372;28;20027;-79
2023/03/28 01:40:31;;;;;;;23.48;10.65;;;;;;;;;;6288052;28;20028;-80
2023/03/28 01:43:50;;;;;;;20.88;10.25;;;;;;;;;;6167496;28;20039;-80
2023/03/28 01:46:58;;;;;;;29.55;13.13;;;;;;;;;;6207939;28;20035;-80
2023/03/28 01:50:04;;;;;;;28.67;11.48;;;;;;;;;;6293210;28;20483;-80
2023/03/28 01:53:24;;;;;;;32.22;13.35;;;;;;;;;;6292749;28;20020;-80
2023/03/28 01:56:30;;;;;;;22.55;11.10;;;;;;;;;;6288730;28;20459;-80
2023/03/28 01:59:53;;;;;;;24.77;10.77;;;;;;;;;;6272680;28;20123;-80
2023/03/28 02:03:04;;;;;;;28.85;13.40;;;;;;;;;;6288282;28;20104;-80
2023/03/28 02:06:07;;;;;;;25.30;12.15;;;;;;;;;;6267594;28;20024;-80
2023/03/28 02:09:10;;;;;;;29.15;14.43;;;;;;;;;;6298593;28;20062;-80
2023/03/28 02:12:24;;;;;;;25.85;11.88;;;;;;;;;;6298611;28;20029;-80
2023/03/28 02:15:26;;;;;;;24.92;13.27;;;;;;;;;;6298910;28;20111;-81
2023/03/28 02:18:48;;;;;;;25.27;14.15;;;;;;;;;;6297463;28;20035;-81
2023/03/28 02:22:19;;;;;;;29.35;12.32;;;;;;;;;;6295158;28;20115;-81
2023/03/28 02:25:19;;;;;;;22.50;12.23;;;;;;;;;;6282940;28;20124;-81
2023/03/28 02:28:20;;;;;;;21.00;10.50;;;;;;;;;;6295923;28;20013;-81
2023/03/28 02:31:21;;;;;;;22.30;9.67;;;;;;;;;;6294799;28;20028;-81
2023/03/28 02:34:21;;;;;;;22.10;10.07;;;;;;;;;;6301603;28;20599;-80
2023/03/28 02:37:24;;;;;;;24.50;11.47;;;;;;;;;;6302193;28;20032;-79
2023/03/28 02:40:30;;;;;;;22.77;10.63;;;;;;;;;;6291222;28;20093;-80
2023/03/28 02:43:33;;;;;;;24.30;11.18;;;;;;;;;;6298358;28;20020;-80
2023/03/28 02:46:45;;;;;;;27.33;12.95;;;;;;;;;;6284094;28;20066;-80
2023/03/28 02:49:47;;;;;;;23.00;10.95;;;;;;;;;;6298408;28;20048;-80
2023/03/28 02:53:01;;;;;;;20.08;10.45;;;;;;;;;;6302600;28;20028;-83
2023/03/28 02:56:37;;;;;;;19.63;10.57;;;;;;;;;;6293570;28;20032;-79
2023/03/28 02:59:41;;;;;;;19.50;9.05;;;;;;;;;;6192766;28;20488;-80
2023/03/28 03:02:42;;;;;;;20.17;10.02;;;;;;;;;;6185088;28;20505;-80
2023/03/28 03:05:42;;;;;;;23.77;8.90;;;;;;;;;;6198106;28;20026;-80
2023/03/28 03:08:43;;;;;;;17.57;9.57;;;;;;;;;;6292340;28;20021;-81
2023/03/28 03:11:43;;;;;;;20.20;10.30;;;;;;;;;;6300815;28;20013;-81
2023/03/28 03:14:43;;;;;;;19.10;8.90;;;;;;;;;;6304509;28;20093;-81
2023/03/28 03:17:44;;;;;;;17.73;8.30;;;;;;;;;;6300039;28;20486;-81
2023/03/28 03:20:44;;;;;;;18.90;8.97;;;;;;;;;;6302625;28;20111;-81
2023/03/28 03:23:44;;;;;;;20.90;9.90;;;;;;;;;;6302896;28;20060;-81
2023/03/28 03:26:45;;;;;;;21.90;11.17;;;;;;;;;;6303540;28;20463;-81
2023/03/28 03:29:47;;;;;;;23.03;9.97;;;;;;;;;;6297768;28;20016;-81
2023/03/28 03:32:47;;;;;;;20.15;8.57;;;;;;;;;;6304963;28;20043;-82
2023/03/28 03:35:47;;;;;;;15.90;7.50;;;;;;;;;;6302974;28;20017;-82
2023/03/28 03:38:47;;;;;;;18.90;8.27;;;;;;;;;;6300318;28;20482;-82
2023/03/28 03:41:48;;;;;;;15.33;8.13;;;;;;;;;;6286625;28;20038;-82
2023/03/28 03:44:48;;;;;;;16.27;8.40;;;;;;;;;;6299404;28;20119;-82
2023/03/28 03:47:49;;;;;;;20.00;8.80;;;;;;;;;;6299430;28;20096;-82
2023/03/28 03:50:50;;;;;;;17.63;8.33;;;;;;;;;;6302719;28;20529;-82
2023/03/28 03:53:50;;;;;;;19.33;9.27;;;;;;;;;;6305017;28;20013;-82
2023/03/28 03:56:50;;;;;;;16.13;7.77;;;;;;;;;;6303758;28;20263;-82
2023/03/28 03:59:51;;;;;;;14.43;6.90;;;;;;;;;;6303363;28;20098;-82
2023/03/28 04:02:52;;;;;;;21.23;9.77;;;;;;;;;;6305648;28;20013;-82
2023/03/28 04:05:53;;;;;;;22.03;9.23;;;;;;;;;;6296024;28;20081;-82
2023/03/28 04:08:54;;;;;;;18.08;8.40;;;;;;;;;;6299424;28;20023;-82
2023/03/28 04:11:54;;;;;;;15.80;7.20;;;;;;;;;;6299539;28;20024;-81
2023/03/28 04:14:54;;;;;;;15.60;7.93;;;;;;;;;;6306575;28;20012;-81
2023/03/28 04:17:55;;;;;;;15.75;9.23;;;;;;;;;;6313066;28;20024;-82
2023/03/28 04:20:57;;;;;;;17.67;8.20;;;;;;;;;;6286797;28;20055;-82
2023/03/28 04:24:00;;;;;;;;;;;;;;;;;;6300337;28;20818;-82
2023/03/28 04:27:00;;;;;;;20.98;9.32;;;;;;;;;;6306790;28;19904;-82
2023/03/28 04:30:00;;;;;;;10.10;5.57;;;;;;;;;;6314314;28;20015;-81
2023/03/28 04:33:03;;;;;;;24.43;9.40;;;;;;;;;;6319532;28;20004;-81
2023/03/28 04:36:04;;;;;;;19.58;8.57;;;;;;;;;;6304117;28;20017;-81
2023/03/28 04:39:04;;;;;;;20.08;8.15;;;;;;;;;;6299539;28;20021;-82
2023/03/28 04:42:07;;;;;;;12.73;6.67;;;;;;;;;;6301472;28;20062;-81
2023/03/28 04:45:08;;;;;;;19.27;8.70;;;;;;;;;;6295826;28;20036;-82
2023/03/28 04:48:08;;;;;;;14.33;7.37;;;;;;;;;;6297977;28;20087;-81
2023/03/28 04:51:08;;;;;;;20.97;8.30;;;;;;;;;;6299366;28;20039;-81
2023/03/28 04:54:09;;;;;;;16.30;5.60;;;;;;;;;;6297994;28;20027;-81
2023/03/28 04:57:09;;;;;;;14.90;7.27;;;;;;;;;;6297767;28;20066;-81
2023/03/28 05:00:11;;;;;;;12.90;6.60;;;;;;;;;;6281014;28;20119;-82
2023/03/28 05:03:12;;;;;;;14.88;7.20;;;;;;;;;;6292580;28;20036;-82
2023/03/28 05:06:12;;;;;;;21.93;8.20;;;;;;;;;;6289954;28;20114;-81
2023/03/28 05:09:15;;;;;;;25.30;9.73;;;;;;;;;;6273255;28;20017;-82
2023/03/28 05:12:15;;;;;;;24.60;9.65;;;;;;;;;;6275784;28;20085;-83
2023/03/28 05:15:16;;;;;;;22.43;11.53;;;;;;;;;;6293616;28;20522;-82
2023/03/28 05:18:16;;;;;;;15.63;8.40;;;;;;;;;;6289096;28;20423;-81
2023/03/28 05:21:16;;;;;;;18.80;10.13;;;;;;;;;;6290640;28;20021;-81
2023/03/28 05:24:18;;;;;;;20.37;10.73;;;;;;;;;;6288699;28;20045;-81
2023/03/28 05:27:18;;;;;;;19.67;9.93;;;;;;;;;;6271306;28;20013;-79
2023/03/28 05:30:18;;;;;;;19.83;10.10;;;;;;;;;;6289627;28;20032;-78
2023/03/28 05:33:21;;;;;;;19.33;10.50;;;;;;;;;;6291183;28;20092;-78
2023/03/28 05:36:22;;;;;;;16.30;8.05;;;;;;;;;;6286502;28;20027;-79
2023/03/28 05:39:22;;;;;;;16.87;8.47;;;;;;;;;;6289569;28;20021;-79
2023/03/28 05:42:22;;;;;;;21.87;8.70;;;;;;;;;;6291561;28;20032;-79
2023/03/28 05:45:23;;;;;;;18.97;10.70;;;;;;;;;;6293014;28;20036;-78
2023/03/28 05:48:23;;;;;;;22.60;12.33;;;;;;;;;;6298073;28;20048;-78
2023/03/28 05:51:23;;;;;;;23.05;11.60;;;;;;;;;;6274938;28;20112;-78
2023/03/28 05:54:23;;;;;;;24.93;13.33;;;;;;;;;;6277447;28;20024;-78
2023/03/28 05:57:24;;;;;;;22.33;11.70;;;;;;;;;;6292877;28;20025;-78
2023/03/28 06:00:24;;;;;;;25.00;13.40;;;;;;;;;;6273164;28;20028;-78
2023/03/28 06:03:25;;;;;;;17.43;9.47;;;;;;;;;;6287195;28;20036;-80
2023/03/28 06:06:25;;;;;;;24.97;12.70;;;;;;;;;;6287740;28;20020;-80
2023/03/28 06:09:25;;;;;;;20.20;10.83;;;;;;;;;;6290034;28;20024;-81
2023/03/28 06:12:26;;;;;;;24.73;11.70;;;;;;;;;;6290667;28;20024;-81
2023/03/28 06:15:27;;;;;;;23.73;11.97;;;;;;;;;;6281810;28;20028;-81
2023/03/28 06:18:28;;;;;;;23.10;11.27;;;;;;;;;;6284915;28;20033;-82
2023/03/28 06:21:29;;;;;;;30.17;15.77;;;;;;;;;;6283178;28;20020;-81
2023/03/28 06:24:29;;;;;;;26.50;15.10;;;;;;;;;;6280380;28;20578;-82
2023/03/28 06:27:30;;;;;;;26.07;13.07;;;;;;;;;;6291126;28;20021;-81
2023/03/28 06:30:34;;;;;;;28.15;15.60;;;;;;;;;;6276454;28;20047;-82
2023/03/28 06:33:34;;;;;;;25.02;11.50;;;;;;;;;;6270228;28;20036;-82
2023/03/28 06:36:36;;;;;;;23.70;13.43;;;;;;;;;;6286292;28;20028;-81
2023/03/28 06:39:36;;;;;;;17.75;7.85;;;;;;;;;;6273598;28;20078;-81
2023/03/28 06:42:36;;;;;;;22.60;9.93;;;;;;;;;;6295419;28;20029;-81
2023/03/28 06:45:36;;;;;;;16.10;7.77;;;;;;;;;;6265911;28;20475;-81
2023/03/28 06:48:37;;;;;;;14.93;8.80;;;;;;;;;;6265186;28;20024;-81
2023/03/28 06:51:37;;;;;;;18.40;9.03;;;;;;;;;;6281422;28;20399;-81
2023/03/28 06:54:37;;;;;;;16.50;7.78;;;;;;;;;;6289376;28;20466;-81
2023/03/28 06:57:37;;;;;;;13.53;8.07;;;;;;;;;;6295717;28;20031;-80
2023/03/28 07:00:37;;;;;;;14.37;8.43;;;;;;;;;;6284509;28;20650;-81
2023/03/28 07:03:38;;;;;;;16.20;9.70;;;;;;;;;;6289372;28;20146;-82
2023/03/28 07:06:38;;;;;;;14.20;8.73;;;;;;;;;;6288639;28;20482;-81
2023/03/28 07:09:39;;;;;;;13.03;7.10;;;;;;;;;;6291653;28;20498;-81
2023/03/28 07:12:40;;;;;;;12.80;6.05;;;;;;;;;;6289094;28;20023;-81
2023/03/28 07:15:40;;;;;;;12.38;6.18;;;;;;;;;;6273933;28;20016;-81
2023/03/28 07:18:40;;;;;;;13.37;7.13;;;;;;;;;;6295028;28;20029;-82
2023/03/28 07:21:40;;;;;;;8.97;5.03;;;;;;;;;;6287627;28;20024;-83
2023/03/28 07:24:41;;;;;;;6.70;4.47;;;;;;;;;;6294513;28;20759;-82
2023/03/28 07:27:41;;;;;;;8.27;3.93;;;;;;;;;;6290653;28;20038;-82
2023/03/28 07:30:41;;;;;;;7.80;4.07;;;;;;;;;;6299031;28;20044;-82
2023/03/28 07:33:41;;;;;;;11.03;5.27;;;;;;;;;;6281908;28;20573;-82
2023/03/28 07:36:42;;;;;;;9.90;4.87;;;;;;;;;;6287310;28;20118;-81
2023/03/28 07:39:42;;;;;;;13.30;5.67;;;;;;;;;;6285055;28;20031;-81
2023/03/28 07:42:42;;;;;;;8.93;4.37;;;;;;;;;;6284342;28;20388;-81
2023/03/28 07:45:43;;;;;;;5.33;2.70;;;;;;;;;;6268461;28;20474;-81
2023/03/28 07:48:45;;;;;;;6.20;3.27;;;;;;;;;;6278690;28;20021;-81
2023/03/28 07:51:46;;;;;;;14.10;4.90;;;;;;;;;;6264669;28;20032;-81
2023/03/28 07:54:46;;;;;;;7.15;4.25;;;;;;;;;;6282247;28;20082;-80
2023/03/28 07:57:47;;;;;;;12.03;5.20;;;;;;;;;;6282946;28;20420;-80
2023/03/28 08:00:47;;;;;;;10.90;5.85;;;;;;;;;;6291951;28;20024;-80
2023/03/28 08:03:47;;;;;;;5.67;2.53;;;;;;;;;;6285649;28;20437;-80
2023/03/28 08:06:47;;;;;;;8.77;4.13;;;;;;;;;;6291708;28;20070;-80
2023/03/28 08:09:49;;;;;;;7.47;3.33;;;;;;;;;;6290194;28;20074;-80
2023/03/28 08:12:50;;;;;;;4.82;2.95;;;;;;;;;;6292392;28;20052;-80
2023/03/28 08:15:51;;;;;;;7.17;3.93;;;;;;;;;;6292118;28;20059;-80
2023/03/28 08:18:51;;;;;;;7.00;3.53;;;;;;;;;;6292541;28;20045;-81
2023/03/28 08:21:52;;;;;;;7.67;3.87;;;;;;;;;;6289128;28;20433;-80
2023/03/28 08:24:53;;;;;;;6.43;3.10;;;;;;;;;;6285206;28;20107;-80
2023/03/28 08:27:54;;;;;;;8.40;3.15;;;;;;;;;;6277466;28;20025;-80
2023/03/28 08:30:54;;;;;;;5.40;2.30;;;;;;;;;;6277844;28;20041;-80
2023/03/28 08:33:56;;;;;;;3.67;2.60;;;;;;;;;;6273081;28;20386;-80
2023/03/28 08:36:56;;;;;;;6.88;2.50;;;;;;;;;;6288599;28;20028;-80
2023/03/28 08:39:57;;;;;;;7.13;3.17;;;;;;;;;;6286757;28;20067;-80
2023/03/28 08:43:24;;;;;;;6.40;3.80;;;;;;;;;;6284531;28;20024;-79
2023/03/28 08:46:26;;;;;;;7.50;3.80;;;;;;;;;;6266716;28;20035;-79
2023/03/28 08:49:27;;;;;;;6.10;3.50;;;;;;;;;;6292048;28;20012;-79
2023/03/28 08:52:28;;;;;;;8.00;3.72;;;;;;;;;;6291927;28;20432;-79
2023/03/28 08:55:39;;;;;;;6.87;3.63;;;;;;;;;;6293097;28;20024;-79
2023/03/28 08:58:46;;;;;;;5.03;2.97;;;;;;;;;;6285874;28;20112;-79
2023/03/28 09:01:46;;;;;;;6.70;3.45;;;;;;;;;;6267776;28;20036;-79
2023/03/28 09:04:47;;;;;;;8.40;4.07;;;;;;;;;;6285630;28;20020;-80
2023/03/28 09:08:19;;;;;;;6.97;4.33;;;;;;;;;;6290993;28;20075;-79
2023/03/28 09:11:29;;;;;;;9.18;4.28;;;;;;;;;;6242174;28;20028;-79
2023/03/28 09:14:32;;;;;;;7.40;4.07;;;;;;;;;;6286434;28;20502;-79
2023/03/28 09:17:44;;;;;;;7.28;3.22;;;;;;;;;;6291449;28;20024;-78
2023/03/28 09:20:44;;;;;;;;;;;;;;;;;;6286057;28;20482;-77
2023/03/28 09:24:03;;;;;;;2.17;1.98;;;;;;;;;;6292887;28;19950;-76
2023/03/28 09:27:04;;;;;;;3.53;2.47;;;;;;;;;;6280475;28;20020;-75
2023/03/28 09:30:18;;;;;;;2.92;2.00;;;;;;;;;;6290705;28;21434;-75
2023/03/28 09:33:30;;;;;;;1.50;1.40;;;;;;;;;;6289651;28;20017;-75
2023/03/28 09:36:31;;;;;;;8.68;4.50;;;;;;;;;;6288021;28;20036;-74
2023/03/28 09:39:36;;;;;;;4.55;2.78;;;;;;;;;;6288939;28;20033;-74
2023/03/28 09:42:43;;;;;;;4.90;1.80;;;;;;;;;;6290100;28;20047;-75
2023/03/28 09:45:57;;;;;;;2.28;1.73;;;;;;;;;;6286782;28;20094;-75
2023/03/28 09:48:57;;;;;;;2.13;1.67;;;;;;;;;;6288275;28;20027;-75
2023/03/28 09:51:58;;;;;;;1.83;1.73;;;;;;;;;;6291265;28;20025;-75
2023/03/28 09:54:59;;;;;;;4.25;2.10;;;;;;;;;;6296080;28;20082;-75
2023/03/28 09:58:03;;;;;;;7.30;3.30;;;;;;;;;;6286828;28;20031;-75
2023/03/28 10:01:05;;;;;;;5.05;2.55;;;;;;;;;;6293498;28;20028;-75
2023/03/28 10:04:12;;;;;;;8.35;3.58;;;;;;;;;;6290832;28;20097;-75
2023/03/28 10:07:12;;;;;;;6.32;3.95;;;;;;;;;;6285954;28;20009;-75
2023/03/28 10:10:16;;;;;;;4.15;2.47;;;;;;;;;;6287107;28;20051;-74
2023/03/28 10:13:17;;;;;;;5.25;3.22;;;;;;;;;;6296243;28;20535;-75
2023/03/28 10:16:22;;;;;;;3.47;2.03;;;;;;;;;;6291658;28;20024;-75
2023/03/28 10:19:24;;;;;;;3.15;2.33;;;;;;;;;;6289896;28;20047;-75
2023/03/28 10:22:26;;;;;;;5.07;2.20;;;;;;;;;;6285964;28;20024;-75
2023/03/28 10:25:38;;;;;;;9.68;4.47;;;;;;;;;;6288684;28;20456;-75
2023/03/28 10:28:42;;;;;;;3.53;2.23;;;;;;;;;;6294944;28;20051;-75
2023/03/28 10:31:46;;;;;;;6.93;2.78;;;;;;;;;;6270023;28;20668;-75
2023/03/28 10:34:56;;;;;;;3.70;2.15;;;;;;;;;;6269383;28;20441;-75
2023/03/28 10:38:02;;;;;;;3.47;2.38;;;;;;;;;;6294941;28;20065;-75
2023/03/28 10:41:06;;;;;;;51.72;15.30;;;;;;;;;;6286167;28;20025;-75
2023/03/28 10:44:15;;;;;;;5.68;3.30;;;;;;;;;;6289587;28;20081;-75
2023/03/28 10:47:17;;;;;;;5.78;2.90;;;;;;;;;;6273902;28;20028;-74
2023/03/28 10:50:18;;;;;;;;;;;;;;;;;;6293237;28;20398;-75
2023/03/28 10:53:36;;;;;;;3.97;2.38;;;;;;;;;;6287713;28;20393;-74
2023/03/28 10:56:40;;;;;;;7.38;3.45;;;;;;;;;;6278847;28;20043;-75
2023/03/28 10:59:45;;;;;;;7.13;2.83;;;;;;;;;;6290440;28;20433;-75
2023/03/28 11:02:55;;;;;;;6.38;3.10;;;;;;;;;;6283498;28;20029;-75
2023/03/28 11:06:00;;;;;;;6.88;2.80;;;;;;;;;;6288822;28;20028;-75
2023/03/28 11:09:06;;;;;;;5.07;2.22;;;;;;;;;;6286187;28;20024;-75
2023/03/28 11:12:07;;;;;;;4.88;2.38;;;;;;;;;;6285469;28;20547;-74
2023/03/28 11:15:26;;;;;;;4.03;2.57;;;;;;;;;;6288225;28;20025;-75
2023/03/28 11:18:41;;;;;;;7.60;3.03;;;;;;;;;;6291397;28;20021;-75
2023/03/28 11:21:51;;;;;;;4.07;2.55;;;;;;;;;;6285102;28;20074;-75
2023/03/28 11:25:10;;;;;;;9.07;3.90;;;;;;;;;;6288227;28;20052;-75
2023/03/28 11:28:13;;;;;;;4.82;2.58;;;;;;;;;;6283756;28;20020;-74
2023/03/28 11:31:16;;;;;;;4.38;2.55;;;;;;;;;;6288044;28;20032;-74
2023/03/28 11:34:22;;;;;;;2.58;1.55;;;;;;;;;;6285051;28;20017;-75
2023/03/28 11:37:27;;;;;;;5.35;3.42;;;;;;;;;;6286849;28;20012;-74
2023/03/28 11:40:32;;;;;;;4.45;2.40;;;;;;;;;;6277549;28;20111;-75
2023/03/28 11:43:36;;;;;;;4.13;2.20;;;;;;;;;;6284187;28;20012;-74
2023/03/28 11:46:57;;;;;;;2.97;1.73;;;;;;;;;;6284186;28;20048;-74
2023/03/28 11:50:01;;;;;;;5.15;3.50;;;;;;;;;;6287904;28;20070;-74
2023/03/28 11:53:07;;;;;;;2.92;1.80;;;;;;;;;;6290687;28;20542;-74
2023/03/28 11:56:10;;;;;;;3.72;2.20;;;;;;;;;;6286570;28;20364;-74
2023/03/28 11:59:31;;;;;;;7.63;2.67;;;;;;;;;;6279594;28;20459;-74
2023/03/28 12:02:38;;;;;;;5.90;2.72;;;;;;;;;;6275726;28;20102;-74
2023/03/28 12:05:44;;;;;;;19.13;7.82;;;;;;;;;;6288703;28;20056;-74
2023/03/28 12:08:50;;;;;;;8.75;3.17;;;;;;;;;;6291286;28;20073;-74
2023/03/28 12:11:57;;;;;;;5.32;3.17;;;;;;;;;;6293641;28;20467;-74
2023/03/28 12:14:57;;;;;;;5.38;2.97;;;;;;;;;;6287125;28;20016;-75
2023/03/28 12:18:00;;;;;;;7.20;3.03;;;;;;;;;;6283904;28;20040;-75
2023/03/28 12:21:00;;;;;;;6.72;4.22;;;;;;;;;;6289612;28;20017;-75
2023/03/28 12:24:10;;;;;;;7.32;4.22;;;;;;;;;;6270379;28;20490;-75
2023/03/28 12:27:30;;;;;;;8.95;4.53;;;;;;;;;;6285496;28;20021;-74
2023/03/28 12:30:37;;;;;;;11.65;5.05;;;;;;;;;;6264415;28;20031;-74
2023/03/28 12:33:47;;;;;;;9.07;4.60;;;;;;;;;;6288993;28;20432;-74
2023/03/28 12:36:51;;;;;;;11.70;6.78;;;;;;;;;;6292712;28;20021;-74
2023/03/28 12:39:57;;;;;;;13.75;6.03;;;;;;;;;;6287144;28;20052;-74
2023/03/28 12:42:58;;;;;;;8.00;3.95;;;;;;;;;;6289439;28;20518;-74
2023/03/28 12:46:00;;;;;;;7.97;3.37;;;;;;;;;;6288347;28;20020;-74
2023/03/28 12:49:02;;;;;;;8.68;3.25;;;;;;;;;;6292505;28;20020;-74
2023/03/28 12:52:03;;;;;;;3.67;2.50;;;;;;;;;;6285418;28;20094;-74
2023/03/28 12:55:08;;;;;;;6.13;3.28;;;;;;;;;;6262727;28;20548;-75
2023/03/28 12:58:11;;;;;;;4.22;2.55;;;;;;;;;;6286614;28;20126;-73
2023/03/28 13:01:18;;;;;;;6.35;3.47;;;;;;;;;;6287906;28;20029;-73
2023/03/28 13:04:24;;;;;;;6.25;3.42;;;;;;;;;;6284074;28;20450;-75
2023/03/28 13:07:27;;;;;;;4.13;2.42;;;;;;;;;;6289016;28;20074;-74
2023/03/28 13:10:27;;;;;;;4.20;2.80;;;;;;;;;;6285199;28;20020;-74
2023/03/28 13:13:32;;;;;;;8.17;3.83;;;;;;;;;;6285899;28;20020;-75
2023/03/28 13:16:41;;;;;;;3.60;2.53;;;;;;;;;;6287388;28;20548;-74
2023/03/28 13:19:42;;;;;;;7.15;3.65;;;;;;;;;;6283713;28;20376;-74
2023/03/28 13:22:52;;;;;;;2.63;1.97;;;;;;;;;;6285070;28;20040;-74
2023/03/28 13:25:54;;;;;;;9.75;3.88;;;;;;;;;;6286378;28;20401;-74
2023/03/28 13:28:58;;;;;;;4.68;2.00;;;;;;;;;;6267681;28;20024;-75
2023/03/28 13:32:02;;;;;;;6.63;3.33;;;;;;;;;;6284825;28;20039;-75
2023/03/28 13:35:04;;;;;;;8.57;4.18;;;;;;;;;;6280458;28;20028;-73
2023/03/28 13:38:13;;;;;;;9.35;3.97;;;;;;;;;;6281129;28;20454;-76
2023/03/28 13:41:43;;;;;;;8.45;3.30;;;;;;;;;;6277940;28;20017;-75
2023/03/28 13:44:43;;;;;;;8.20;4.15;;;;;;;;;;6260527;28;20036;-75
2023/03/28 13:47:43;;;;;;;36.23;13.27;;;;;;;;;;6280167;28;20502;-75
2023/03/28 13:50:44;;;;;;;6.73;2.90;;;;;;;;;;6282348;28;20016;-75
2023/03/28 13:53:47;;;;;;;8.97;4.17;;;;;;;;;;6275011;28;20035;-74
2023/03/28 13:56:48;;;;;;;13.35;6.00;;;;;;;;;;6273732;28;20028;-74
2023/03/28 13:59:52;;;;;;;10.70;4.70;;;;;;;;;;6281464;28;20021;-73
2023/03/28 14:02:59;;;;;;;24.70;9.63;;;;;;;;;;6285988;28;20028;-73
2023/03/28 14:06:10;;;;;;;6.78;3.25;;;;;;;;;;6274753;28;20067;-73
2023/03/28 14:09:13;;;;;;;15.52;6.05;;;;;;;;;;6293520;28;20017;-73
2023/03/28 14:12:14;;;;;;;13.43;5.65;;;;;;;;;;6274466;28;20024;-73
2023/03/28 14:15:20;;;;;;;13.07;5.75;;;;;;;;;;6276722;28;20032;-73
2023/03/28 14:18:26;;;;;;;15.90;6.82;;;;;;;;;;6293743;28;20095;-73
2023/03/28 14:21:26;;;;;;;16.67;6.03;;;;;;;;;;6288132;28;20017;-73
2023/03/28 14:24:27;;;;;;;12.73;5.20;;;;;;;;;;6292633;28;20517;-74
2023/03/28 14:27:41;;;;;;;10.63;4.40;;;;;;;;;;6286901;28;20056;-73
2023/03/28 14:30:41;;;;;;;13.30;5.50;;;;;;;;;;6292143;28;20024;-73
2023/03/28 14:33:45;;;;;;;10.70;4.30;;;;;;;;;;6271325;28;20032;-73
2023/03/28 14:37:11;;;;;;;15.45;4.13;;;;;;;;;;6289389;28;20024;-73
2023/03/28 14:40:17;;;;;;;12.00;4.57;;;;;;;;;;6271946;28;20043;-73
2023/03/28 14:43:19;;;;;;;13.57;6.25;;;;;;;;;;6286758;28;20017;-73
2023/03/28 14:46:21;;;;;;;8.52;5.72;;;;;;;;;;6287738;28;20047;-73
2023/03/28 14:49:22;;;;;;;;;;;;;;;;;;6284217;28;20024;-73
2023/03/28 14:52:28;;;;;;;19.80;7.78;;;;;;;;;;6289162;28;20735;-77
2023/03/28 14:55:28;;;;;;;18.25;7.55;;;;;;;;;;6290762;28;20055;-74
2023/03/28 14:58:29;;;;;;;21.63;8.97;;;;;;;;;;6292402;28;20028;-73
2023/03/28 15:01:30;;;;;;;20.03;9.67;;;;;;;;;;6284691;28;20112;-73
2023/03/28 15:04:31;;;;;;;19.67;8.47;;;;;;;;;;6285043;28;20093;-74
2023/03/28 15:07:32;;;;;;;14.60;6.60;;;;;;;;;;6283331;28;20035;-73
2023/03/28 15:10:32;;;;;;;10.15;5.32;;;;;;;;;;6294631;28;20090;-73
2023/03/28 15:13:36;;;;;;;10.33;5.23;;;;;;;;;;6292060;28;20423;-73
2023/03/28 15:16:41;;;;;;;9.82;5.30;;;;;;;;;;6281978;28;20025;-74
2023/03/28 15:19:43;;;;;;;9.55;4.85;;;;;;;;;;6272699;28;20024;-74
2023/03/28 15:22:43;;;;;;;;;;;;;;;;;;6288517;28;20044;-74
2023/03/28 15:25:43;;;;;;;8.00;3.85;;;;;;;;;;6287321;28;19920;-74
2023/03/28 15:28:46;;;;;;;10.00;4.93;;;;;;;;;;6290542;28;20078;-74
2023/03/28 15:31:47;;;;;;;32.03;12.50;;;;;;;;;;6284681;28;20029;-75
2023/03/28 15:34:47;;;;;;;12.97;7.07;;;;;;;;;;6286403;28;20116;-73
2023/03/28 15:37:48;;;;;;;17.03;7.50;;;;;;;;;;6291305;28;20040;-74
2023/03/28 15:40:49;;;;;;;14.37;7.60;;;;;;;;;;6284853;28;20379;-73
2023/03/28 15:43:52;;;;;;;10.25;5.82;;;;;;;;;;6293981;28;20150;-74
2023/03/28 15:46:56;;;;;;;11.63;6.82;;;;;;;;;;6286119;28;20020;-74
2023/03/28 15:50:02;;;;;;;13.88;7.18;;;;;;;;;;6281953;28;20021;-74
2023/03/28 15:53:06;;;;;;;9.18;4.60;;;;;;;;;;6288763;28;20013;-74
2023/03/28 15:56:09;;;;;;;10.93;5.38;;;;;;;;;;6285827;28;20475;-74
2023/03/28 15:59:13;;;;;;;8.93;4.35;;;;;;;;;;6285417;28;20616;-75
2023/03/28 16:02:28;;;;;;;18.65;7.45;;;;;;;;;;6291383;28;20024;-74
2023/03/28 16:05:31;;;;;;;13.30;6.10;;;;;;;;;;6282263;28;20044;-74
2023/03/28 16:08:33;;;;;;;15.32;7.55;;;;;;;;;;6288745;28;20025;-74
2023/03/28 16:11:34;;;;;;;15.45;8.13;;;;;;;;;;6290023;28;20457;-74
2023/03/28 16:14:34;;;;;;;15.97;7.00;;;;;;;;;;6284830;28;20070;-74
2023/03/28 16:17:35;;;;;;;24.13;10.47;;;;;;;;;;6288979;28;20203;-74
2023/03/28 16:20:35;;;;;;;12.57;6.67;;;;;;;;;;6287125;28;20029;-74
2023/03/28 16:23:36;;;;;;;18.63;7.90;;;;;;;;;;6288616;28;20012;-74
2023/03/28 16:26:36;;;;;;;12.83;5.87;;;;;;;;;;6284160;28;20482;-74
2023/03/28 16:29:36;;;;;;;11.77;6.37;;;;;;;;;;6267268;28;20435;-74
2023/03/28 16:32:36;;;;;;;13.03;6.90;;;;;;;;;;6281597;28;20052;-74
2023/03/28 16:35:41;;;;;;;17.42;8.60;;;;;;;;;;6279288;28;20341;-75
2023/03/28 16:38:41;;;;;;;18.83;10.60;;;;;;;;;;6285146;28;20024;-74
2023/03/28 16:41:41;;;;;;;18.07;10.83;;;;;;;;;;6287657;28;20484;-75
2023/03/28 16:44:41;;;;;;;17.73;10.07;;;;;;;;;;6259271;28;20017;-75
2023/03/28 16:47:41;;;;;;;17.27;10.55;;;;;;;;;;6289186;28;20474;-74
2023/03/28 16:50:47;;;;;;;27.97;13.57;;;;;;;;;;6286202;28;20074;-74
2023/03/28 16:53:48;;;;;;;19.35;9.48;;;;;;;;;;6288508;28;20036;-74
2023/03/28 16:56:48;;;;;;;20.90;8.83;;;;;;;;;;6289280;28;20032;-74
2023/03/28 16:59:48;;;;;;;12.73;6.33;;;;;;;;;;6292446;28;20024;-75
2023/03/28 17:02:48;;;;;;;13.25;6.57;;;;;;;;;;6264540;28;20035;-74
2023/03/28 17:05:49;;;;;;;12.53;5.93;;;;;;;;;;6289859;28;20528;-74
2023/03/28 17:08:51;;;;;;;8.30;4.13;;;;;;;;;;6290674;28;20031;-74
2023/03/28 17:11:52;;;;;;;7.22;4.45;;;;;;;;;;6289570;28;20027;-74
2023/03/28 17:14:52;;;;;;;7.47;4.32;;;;;;;;;;6270738;28;20655;-74
2023/03/28 17:17:52;;;;;;;16.83;5.97;;;;;;;;;;6268696;28;20025;-75
2023/03/28 17:21:09;;;;;;;13.30;6.57;;;;;;;;;;6289256;28;20033;-74
2023/03/28 17:24:10;;;;;;;12.52;8.10;;;;;;;;;;6287647;28;20075;-75
2023/03/28 17:27:10;;;;;;;12.03;6.03;;;;;;;;;;6288622;28;20528;-74
2023/03/28 17:30:11;;;;;;;8.27;5.00;;;;;;;;;;6284503;28;20062;-74
2023/03/28 17:33:12;;;;;;;6.10;3.55;;;;;;;;;;6292192;28;20553;-73
2023/03/28 17:36:13;;;;;;;7.95;3.78;;;;;;;;;;6289357;28;20017;-75
2023/03/28 17:39:13;;;;;;;9.75;5.97;;;;;;;;;;6295715;28;20096;-75
2023/03/28 17:42:14;;;;;;;18.17;6.53;;;;;;;;;;6269677;28;20028;-74
2023/03/28 17:45:14;;;;;;;11.25;4.88;;;;;;;;;;6294665;28;20096;-74
2023/03/28 17:48:14;;;;;;;12.23;4.33;;;;;;;;;;6297217;28;20036;-75
2023/03/28 17:51:17;;;;;;;29.63;10.57;;;;;;;;;;6287308;28;20040;-75
2023/03/28 17:54:17;;;;;;;9.15;3.85;;;;;;;;;;6296565;28;20028;-74
2023/03/28 17:57:17;;;;;;;6.90;4.43;;;;;;;;;;6287494;28;20494;-74
2023/03/28 18:00:18;;;;;;;11.87;5.90;;;;;;;;;;6294004;28;20115;-74
2023/03/28 18:03:18;;;;;;;6.87;3.70;;;;;;;;;;6290538;28;20066;-74
2023/03/28 18:06:18;;;;;;;50.00;15.40;;;;;;;;;;6289616;28;20070;-73
2023/03/28 18:09:18;;;;;;;57.90;21.50;;;;;;;;;;6290572;28;20366;-74